Time;durP1;ratioP1;P1;durP2;ratioP2;P2;SDS_P1;SDS_P2;PMS_P1;PMS_P2;Temp;Humidity;BMP_temperature;BMP_pressure;BME280_temperature;BME280_humidity;BME280_pressure;Samples;Min_cycle;Max_cycle;Signal;HPM_P1;HPM_P2
2022/12/27 00:02:13;;;;;;;2.00;0.80;;;10.80;70.90;;;;;;2559343;53;21816;-86
2022/12/27 00:04:39;;;;;;;1.80;0.88;;;10.80;70.80;;;;;;2559653;53;21829;-84
2022/12/27 00:07:05;;;;;;;2.22;0.80;;;10.70;70.70;;;;;;2559768;53;20935;-84
2022/12/27 00:09:32;;;;;;;5.75;1.30;;;10.70;70.70;;;;;;2320469;54;20999;-83
2022/12/27 00:11:59;;;;;;;2.10;0.75;;;10.70;70.70;;;;;;2560409;53;20994;-84
2022/12/27 00:14:25;;;;;;;3.90;0.95;;;10.60;70.50;;;;;;2320208;54;20959;-86
2022/12/27 00:16:52;;;;;;;2.42;0.77;;;10.60;70.50;;;;;;2320151;54;20934;-86
2022/12/27 00:19:18;;;;;;;2.10;0.75;;;10.50;70.40;;;;;;2320113;54;21919;-85
2022/12/27 00:21:44;;;;;;;3.25;0.80;;;10.50;70.40;;;;;;2559612;53;21011;-85
2022/12/27 00:24:11;;;;;;;1.73;0.65;;;10.40;70.30;;;;;;2320614;54;20919;-84
2022/12/27 00:26:38;;;;;;;1.83;0.70;;;10.40;70.30;;;;;;2319719;54;21755;-83
2022/12/27 00:29:04;;;;;;;1.45;0.57;;;10.30;70.30;;;;;;2319673;54;20951;-84
2022/12/27 00:31:30;;;;;;;1.42;0.60;;;10.30;70.30;;;;;;2559713;53;20959;-84
2022/12/27 00:33:59;;;;;;;2.28;0.75;;;10.20;70.10;;;;;;2560059;53;20931;-85
2022/12/27 00:36:26;;;;;;;2.22;0.82;;;10.20;70.10;;;;;;2559625;53;21022;-83
2022/12/27 00:38:54;;;;;;;1.70;0.70;;;10.10;70.10;;;;;;2560340;53;20987;-84
2022/12/27 00:41:21;;;;;;;4.18;1.67;;;10.10;70.10;;;;;;2319740;54;20915;-84
2022/12/27 00:43:47;;;;;;;2.75;1.10;;;10.00;70.00;;;;;;2559958;53;20911;-84
2022/12/27 00:46:14;;;;;;;3.70;0.88;;;10.00;69.90;;;;;;2559636;53;21023;-85
2022/12/27 00:48:40;;;;;;;2.58;1.25;;;9.90;70.80;;;;;;2319945;54;20939;-84
2022/12/27 00:51:14;;;;;;;2.90;1.00;;;9.90;70.80;;;;;;2559835;53;20915;-84
2022/12/27 00:53:41;;;;;;;4.55;1.27;;;9.80;70.60;;;;;;2559661;53;21836;-84
2022/12/27 00:56:08;;;;;;;4.55;1.37;;;9.80;70.80;;;;;;2319243;54;20986;-83
2022/12/27 00:58:34;;;;;;;4.32;1.20;;;9.70;70.80;;;;;;2319856;54;20976;-85
2022/12/27 01:01:15;;;;;;;4.25;1.62;;;9.70;70.70;;;;;;2502288;54;20974;-85
2022/12/27 01:03:42;;;;;;;3.33;0.90;;;9.60;70.50;;;;;;2527355;54;20946;-84
2022/12/27 01:06:13;;;;;;;3.08;0.98;;;9.50;70.60;;;;;;2527661;54;20969;-85
2022/12/27 01:08:39;;;;;;;2.42;0.90;;;9.50;70.40;;;;;;2527528;54;21005;-85
2022/12/27 01:11:05;;;;;;;1.92;0.75;;;9.40;70.40;;;;;;2527916;54;21032;-83
2022/12/27 01:13:32;;;;;;;2.45;0.70;;;9.30;70.20;;;;;;2527502;54;20974;-84
2022/12/27 01:15:58;;;;;;;2.28;0.70;;;9.30;70.90;;;;;;2527879;54;21045;-84
2022/12/27 01:18:25;;;;;;;2.20;0.60;;;9.20;70.20;;;;;;2528017;54;21013;-85
2022/12/27 01:20:51;;;;;;;2.55;0.60;;;9.10;70.10;;;;;;2527813;54;20982;-84
2022/12/27 01:23:17;;;;;;;1.48;0.60;;;9.00;70.10;;;;;;2294448;55;20925;-85
2022/12/27 01:25:43;;;;;;;1.08;0.50;;;9.00;70.20;;;;;;2293951;55;20949;-85
2022/12/27 01:28:10;;;;;;;1.90;0.62;;;8.90;70.30;;;;;;2528424;54;21387;-85
2022/12/27 01:30:36;;;;;;;1.80;0.60;;;8.80;70.30;;;;;;2528489;54;21477;-85
2022/12/27 01:33:02;;;;;;;1.58;0.70;;;8.80;70.40;;;;;;2529044;54;20918;-85
2022/12/27 01:35:28;;;;;;;2.28;0.88;;;8.70;70.30;;;;;;2530363;54;21034;-85
2022/12/27 01:37:55;;;;;;;2.33;0.60;;;8.70;70.60;;;;;;2529918;54;20922;-85
2022/12/27 01:40:23;;;;;;;1.58;0.68;;;8.70;70.70;;;;;;2294273;55;20933;-85
2022/12/27 01:42:52;;;;;;;1.58;0.55;;;8.60;70.60;;;;;;2294348;55;21374;-86
2022/12/27 01:45:26;;;;;;;2.03;0.70;;;8.50;70.50;;;;;;2291462;55;20960;-84
2022/12/27 01:48:03;;;;;;;2.20;0.60;;;8.50;70.50;;;;;;2527613;54;20908;-84
2022/12/27 01:54:09;;;;;;;2.15;0.65;;;8.40;70.40;;;;;;2526860;54;21794;-84
2022/12/27 01:56:36;;;;;;;1.37;0.47;;;8.40;70.20;;;;;;2560126;53;20983;-83
2022/12/27 01:59:05;;;;;;;1.08;0.50;;;8.30;70.20;;;;;;2559713;53;20982;-85
2022/12/27 02:01:34;;;;;;;1.62;0.52;;;8.20;70.20;;;;;;2320367;53;21003;-85
2022/12/27 02:04:06;;;;;;;1.15;0.50;;;8.10;70.20;;;;;;2320697;53;20927;-86
2022/12/27 02:06:33;;;;;;;1.95;0.57;;;8.10;70.40;;;;;;2320273;53;20978;-85
2022/12/27 02:09:13;;;;;;;1.98;0.50;;;8.00;70.50;;;;;;2297573;54;21049;-85
2022/12/27 02:11:50;;;;;;;3.55;1.00;;;8.00;70.50;;;;;;2560302;53;21711;-84
2022/12/27 02:14:43;;;;;;;1.05;0.68;;;7.90;70.60;;;;;;2560169;53;20936;-86
2022/12/27 02:17:16;;;;;;;1.92;0.52;;;7.90;70.40;;;;;;2560265;53;20907;-85
2022/12/27 02:20:12;;;;;;;1.98;0.60;;;7.80;70.60;;;;;;2320360;53;20966;-85
2022/12/27 02:29:13;;;;;;;1.65;0.57;;;7.80;70.50;;;;;;2527985;54;21767;-84
2022/12/27 02:31:49;;;;;;;1.30;0.50;;;7.70;70.00;;;;;;2527583;54;20929;-84
2022/12/27 02:34:23;;;;;;;1.40;0.47;;;7.70;70.90;;;;;;2527742;54;20942;-85
2022/12/27 02:36:51;;;;;;;1.95;0.73;;;7.60;70.80;;;;;;2527702;54;20918;-84
2022/12/27 02:39:18;;;;;;;1.50;0.60;;;7.60;71.00;;;;;;2527552;54;21911;-84
2022/12/27 02:53:22;;;;;;;1.58;0.60;;;7.40;71.10;;;;;;2532883;54;20988;-85
2022/12/27 03:03:19;;;;;;;1.02;0.47;;;7.40;70.80;;;;;;2320688;55;20966;-84
2022/12/27 03:16:19;;;;;;;1.25;0.40;;;7.20;71.10;;;;;;2315639;54;20983;-84
2022/12/27 03:27:39;;;;;;;2.05;0.90;;;7.10;71.30;;;;;;2527696;54;21601;-84
2022/12/27 03:33:12;;;;;;;1.55;0.60;;;7.10;71.40;;;;;;2527363;54;21517;-86
2022/12/27 03:38:49;;;;;;;1.83;0.70;;;7.00;71.40;;;;;;2297962;55;20963;-84
2022/12/27 03:44:23;;;;;;;1.40;0.60;;;7.00;71.60;;;;;;2320282;54;20998;-85
2022/12/27 03:46:55;;;;;;;1.77;0.60;;;7.00;71.60;;;;;;2559762;53;20923;-84
2022/12/27 03:50:53;;;;;;;1.73;0.80;;;7.00;71.70;;;;;;2298506;54;20967;-86
2022/12/27 03:53:42;;;;;;;2.05;0.60;;;7.00;71.00;;;;;;2559831;53;21479;-84
2022/12/27 03:56:10;;;;;;;2.35;0.60;;;6.90;72.00;;;;;;2559124;53;21388;-85
2022/12/27 03:58:37;;;;;;;2.30;0.70;;;6.90;71.60;;;;;;2527518;54;21532;-84
2022/12/27 04:01:03;;;;;;;2.60;0.70;;;6.90;71.70;;;;;;2297007;54;21040;-86
2022/12/27 04:03:29;;;;;;;1.62;0.57;;;6.90;71.70;;;;;;2290175;55;20997;-86
2022/12/27 04:05:55;;;;;;;2.10;0.60;;;6.90;71.80;;;;;;2293780;55;20921;-85
2022/12/27 04:35:51;;;;;;;1.05;0.50;;;6.80;72.10;;;;;;2527292;54;21030;-84
2022/12/27 04:38:17;;;;;;;1.90;0.70;;;6.80;72.00;;;;;;2292672;54;21049;-83
2022/12/27 04:54:55;;;;;;;1.25;0.60;;;6.80;72.20;;;;;;2554084;53;20975;-84
2022/12/27 04:57:21;;;;;;;1.73;0.60;;;6.80;72.20;;;;;;2559658;53;20971;-84
2022/12/27 05:02:32;;;;;;;1.70;0.68;;;6.80;72.40;;;;;;2560079;53;21065;-85
2022/12/27 05:04:58;;;;;;;3.55;0.55;;;6.80;72.40;;;;;;2559121;53;21376;-85
2022/12/27 05:15:39;;;;;;;1.87;0.90;;;6.80;72.20;;;;;;2305242;53;20977;-84
2022/12/27 05:18:05;;;;;;;1.42;0.60;;;6.80;72.00;;;;;;2305249;54;21529;-84
2022/12/27 05:20:33;;;;;;;2.65;0.95;;;6.80;71.90;;;;;;2541113;53;21015;-84
2022/12/27 05:25:44;;;;;;;2.30;0.65;;;6.80;71.80;;;;;;2320712;53;21724;-85
2022/12/27 05:28:11;;;;;;;1.55;0.70;;;6.80;71.70;;;;;;2319864;53;21880;-85
2022/12/27 05:30:39;;;;;;;2.80;1.00;;;6.80;71.70;;;;;;2560012;53;20923;-84
2022/12/27 05:33:05;;;;;;;3.50;1.27;;;6.70;71.50;;;;;;2560505;53;20918;-84
2022/12/27 05:35:33;;;;;;;3.10;1.27;;;6.70;71.60;;;;;;2560148;53;20915;-85
2022/12/27 05:37:59;;;;;;;4.20;1.02;;;6.70;71.70;;;;;;2559895;53;21671;-84
2022/12/27 05:40:26;;;;;;;2.83;1.05;;;6.70;71.80;;;;;;2560120;53;20995;-85
2022/12/27 05:42:52;;;;;;;4.22;1.67;;;6.70;71.80;;;;;;2320369;53;20939;-85
2022/12/27 05:45:18;;;;;;;4.00;1.60;;;6.70;71.90;;;;;;2320463;53;20998;-85
2022/12/27 05:47:45;;;;;;;3.83;1.60;;;6.70;72.00;;;;;;2320442;53;21015;-86
2022/12/27 05:50:11;;;;;;;4.10;1.70;;;6.70;72.10;;;;;;2319750;53;21813;-85
2022/12/27 05:52:37;;;;;;;3.95;1.67;;;6.60;72.10;;;;;;2560531;53;21365;-83
2022/12/27 05:55:07;;;;;;;5.95;2.05;;;6.60;72.10;;;;;;2560319;53;20920;-84
2022/12/27 05:57:34;;;;;;;4.53;1.80;;;6.60;72.20;;;;;;2320004;53;20967;-84
2022/12/27 06:00:03;;;;;;;6.62;1.55;;;6.70;72.30;;;;;;2559771;53;20931;-85
2022/12/27 06:02:29;;;;;;;4.05;1.55;;;6.70;72.30;;;;;;2320549;53;20986;-85
2022/12/27 06:04:55;;;;;;;3.50;1.40;;;6.70;72.30;;;;;;2320609;53;20991;-85
2022/12/27 06:07:22;;;;;;;2.95;1.25;;;6.60;72.30;;;;;;2559957;53;20990;-85
2022/12/27 06:09:48;;;;;;;5.50;1.42;;;6.70;72.40;;;;;;2560436;53;21474;-84
2022/12/27 06:12:14;;;;;;;3.05;1.42;;;6.60;72.30;;;;;;2528663;53;21057;-84
2022/12/27 06:14:41;;;;;;;4.55;2.08;;;6.70;72.40;;;;;;2560145;53;20927;-85
2022/12/27 06:17:07;;;;;;;3.65;1.80;;;6.70;72.30;;;;;;2320061;53;21003;-85
2022/12/27 06:19:34;;;;;;;3.22;1.50;;;6.70;72.40;;;;;;2320403;53;21717;-86
2022/12/27 06:22:00;;;;;;;2.70;1.27;;;6.70;72.40;;;;;;2320283;53;20931;-85
2022/12/27 06:24:26;;;;;;;4.60;1.33;;;6.70;72.40;;;;;;2560118;53;20934;-86
2022/12/27 06:26:53;;;;;;;3.00;1.08;;;6.70;72.50;;;;;;2320016;53;20982;-86
2022/12/27 06:29:19;;;;;;;3.80;1.50;;;6.50;72.30;;;;;;2320468;53;20924;-84
2022/12/27 06:31:45;;;;;;;3.60;1.60;;;6.70;72.50;;;;;;2559603;53;20927;-84
2022/12/27 06:34:12;;;;;;;3.28;1.50;;;6.70;72.60;;;;;;2559766;53;21788;-83
2022/12/27 06:36:38;;;;;;;2.30;1.02;;;6.70;72.60;;;;;;2320403;53;20967;-84
2022/12/27 06:39:04;;;;;;;2.65;1.02;;;6.70;72.60;;;;;;2559639;53;20942;-85
2022/12/27 06:41:30;;;;;;;3.05;1.30;;;6.70;72.60;;;;;;2559712;53;21562;-85
2022/12/27 06:43:57;;;;;;;4.30;1.40;;;6.70;72.50;;;;;;2320602;53;21782;-85
2022/12/27 06:46:23;;;;;;;2.78;0.90;;;6.70;72.50;;;;;;2560447;53;21042;-85
2022/12/27 06:48:49;;;;;;;5.90;1.48;;;6.70;72.60;;;;;;2560530;53;21003;-85
2022/12/27 06:51:16;;;;;;;2.67;1.23;;;6.70;72.60;;;;;;2560132;53;21551;-85
2022/12/27 06:53:43;;;;;;;2.40;0.98;;;6.70;72.60;;;;;;2320522;53;21767;-85
2022/12/27 06:56:11;;;;;;;2.67;0.80;;;6.60;72.40;;;;;;2559880;53;20999;-85
2022/12/27 06:58:37;;;;;;;2.00;0.70;;;6.80;72.70;;;;;;2320667;53;20919;-85
2022/12/27 07:01:12;;;;;;;3.87;0.80;;;6.80;72.70;;;;;;2320214;53;20971;-85
2022/12/27 07:03:38;;;;;;;3.25;1.10;;;6.80;72.70;;;;;;2321021;53;20931;-85
2022/12/27 07:06:05;;;;;;;3.80;1.15;;;6.80;72.70;;;;;;2559961;53;21058;-84
2022/12/27 07:08:31;;;;;;;3.10;0.82;;;6.80;72.70;;;;;;2320554;53;21038;-84
2022/12/27 07:11:03;;;;;;;1.77;0.70;;;6.80;72.70;;;;;;2559683;53;21003;-84
2022/12/27 07:13:32;;;;;;;1.60;0.70;;;6.80;73.40;;;;;;2560074;53;21118;-86
2022/12/27 07:15:59;;;;;;;3.60;1.00;;;6.80;72.80;;;;;;2319847;53;21015;-85
2022/12/27 07:18:25;;;;;;;4.57;2.40;;;6.80;72.80;;;;;;2559848;53;21790;-85
2022/12/27 07:20:51;;;;;;;3.55;1.83;;;6.80;72.90;;;;;;2559795;53;21291;-84
2022/12/27 07:23:17;;;;;;;3.58;1.30;;;6.80;72.90;;;;;;2320606;53;21383;-85
2022/12/27 07:25:45;;;;;;;3.53;1.42;;;6.80;72.80;;;;;;2560844;53;20915;-84
2022/12/27 07:28:11;;;;;;;2.35;1.00;;;6.80;72.80;;;;;;2560486;53;20979;-85
2022/12/27 07:30:40;;;;;;;3.08;0.85;;;6.80;72.70;;;;;;2321046;53;21039;-84
2022/12/27 07:33:07;;;;;;;2.70;0.90;;;6.90;72.80;;;;;;2319270;53;20990;-84
2022/12/27 07:35:33;;;;;;;2.42;0.90;;;6.90;72.80;;;;;;2559613;53;20918;-84
2022/12/27 07:38:00;;;;;;;2.60;1.00;;;6.90;72.80;;;;;;2319559;53;21763;-85
2022/12/27 07:40:27;;;;;;;2.83;0.80;;;6.90;72.80;;;;;;2559589;53;20915;-85
2022/12/27 07:42:53;;;;;;;3.78;0.90;;;6.90;72.80;;;;;;2558873;53;21712;-84
2022/12/27 07:45:20;;;;;;;3.03;1.17;;;6.90;72.90;;;;;;2558978;53;20931;-86
2022/12/27 07:47:46;;;;;;;3.58;1.30;;;6.90;72.80;;;;;;2559847;53;20915;-85
2022/12/27 07:50:13;;;;;;;3.37;1.55;;;6.90;72.80;;;;;;2319836;53;20991;-85
2022/12/27 07:52:39;;;;;;;4.43;1.98;;;6.90;72.80;;;;;;2560101;53;20939;-84
2022/12/27 07:55:06;;;;;;;3.60;1.67;;;6.90;72.90;;;;;;2559930;53;21384;-85
2022/12/27 07:57:32;;;;;;;5.25;2.35;;;6.90;72.90;;;;;;2559045;53;21074;-85
2022/12/27 07:59:59;;;;;;;6.95;4.07;;;6.90;72.90;;;;;;2320384;53;21066;-84
2022/12/27 08:02:25;;;;;;;7.22;3.00;;;7.00;73.00;;;;;;2560148;53;20942;-84
2022/12/27 08:04:51;;;;;;;8.57;3.87;;;7.00;73.00;;;;;;2560123;53;20990;-84
2022/12/27 08:07:18;;;;;;;7.65;3.55;;;7.00;73.00;;;;;;2560311;53;20940;-84
2022/12/27 08:09:45;;;;;;;5.47;2.90;;;7.00;73.10;;;;;;2320616;53;20998;-85
2022/12/27 08:12:12;;;;;;;4.72;1.75;;;7.00;73.10;;;;;;2320399;53;20962;-85
2022/12/27 08:14:39;;;;;;;3.95;1.50;;;7.00;73.10;;;;;;2321457;53;20959;-84
2022/12/27 08:17:17;;;;;;;3.87;1.52;;;7.00;73.10;;;;;;2559362;53;20931;-84
2022/12/27 08:19:43;;;;;;;4.43;1.90;;;7.00;73.10;;;;;;2560527;53;20980;-84
2022/12/27 08:22:10;;;;;;;6.37;2.87;;;7.10;73.20;;;;;;2560340;53;20983;-84
2022/12/27 08:24:40;;;;;;;8.82;3.30;;;7.10;73.30;;;;;;2561128;53;20979;-83
2022/12/27 08:27:07;;;;;;;5.65;2.20;;;7.10;73.30;;;;;;2320843;53;20935;-83
2022/12/27 08:29:34;;;;;;;4.22;2.35;;;7.10;73.30;;;;;;2561029;53;20896;-84
2022/12/27 08:32:01;;;;;;;4.28;1.92;;;7.10;73.30;;;;;;2320991;53;20920;-83
2022/12/27 08:34:27;;;;;;;3.85;1.92;;;7.20;73.50;;;;;;2320279;53;20962;-84
2022/12/27 08:36:53;;;;;;;4.95;2.12;;;7.20;73.50;;;;;;2320001;53;20935;-85
2022/12/27 08:39:21;;;;;;;3.78;2.10;;;7.20;73.60;;;;;;2321250;53;20982;-86
2022/12/27 08:41:47;;;;;;;4.75;2.00;;;7.20;73.70;;;;;;2560166;53;21007;-84
2022/12/27 08:44:13;;;;;;;3.55;1.80;;;7.30;73.90;;;;;;2559093;53;20921;-83
2022/12/27 08:46:40;;;;;;;3.70;1.80;;;7.30;74.00;;;;;;2559617;53;20993;-84
2022/12/27 08:49:07;;;;;;;3.45;1.55;;;7.40;74.10;;;;;;2559601;53;20915;-84
2022/12/27 08:51:34;;;;;;;6.05;1.67;;;7.40;74.20;;;;;;2320588;53;20990;-85
2022/12/27 08:54:06;;;;;;;3.40;1.45;;;7.40;74.20;;;;;;2320375;53;20943;-85
2022/12/27 08:56:32;;;;;;;3.30;1.60;;;7.50;74.30;;;;;;2320001;53;21027;-83
2022/12/27 08:58:58;;;;;;;3.42;1.70;;;7.50;74.40;;;;;;2559094;53;20935;-85
2022/12/27 09:01:24;;;;;;;6.28;1.62;;;7.60;74.50;;;;;;2319307;53;20948;-84
2022/12/27 09:03:51;;;;;;;4.30;1.60;;;7.60;74.60;;;;;;2558898;53;20901;-84
2022/12/27 09:06:21;;;;;;;3.87;1.83;;;7.70;74.60;;;;;;2321203;53;20963;-85
2022/12/27 09:08:49;;;;;;;4.18;1.70;;;7.70;74.70;;;;;;2563729;53;21035;-85
2022/12/27 09:11:23;;;;;;;5.87;1.87;;;7.80;75.00;;;;;;2559656;53;20971;-84
2022/12/27 09:13:49;;;;;;;5.25;1.80;;;7.90;75.10;;;;;;2560398;53;20955;-85
2022/12/27 09:16:17;;;;;;;3.55;1.40;;;7.90;75.30;;;;;;2319988;53;20999;-84
2022/12/27 09:18:48;;;;;;;3.62;1.73;;;8.00;75.60;;;;;;2560340;53;21057;-84
2022/12/27 09:21:18;;;;;;;2.83;1.20;;;8.10;75.80;;;;;;2561919;53;21023;-84
2022/12/27 09:23:44;;;;;;;4.05;1.10;;;8.10;75.90;;;;;;2560855;53;20999;-84
2022/12/27 09:26:12;;;;;;;2.30;0.93;;;8.20;76.10;;;;;;2559911;53;21059;-84
2022/12/27 09:28:39;;;;;;;2.92;1.15;;;8.30;76.30;;;;;;2320940;53;22058;-84
2022/12/27 09:31:06;;;;;;;3.67;1.10;;;8.40;76.50;;;;;;2560312;53;21010;-84
2022/12/27 09:33:33;;;;;;;4.20;1.33;;;8.50;76.60;;;;;;2560532;53;21023;-84
2022/12/27 09:36:04;;;;;;;3.65;1.25;;;8.60;76.80;;;;;;2560775;53;21585;-84
2022/12/27 09:38:30;;;;;;;3.47;1.30;;;8.70;76.90;;;;;;2550991;53;20987;-84
2022/12/27 09:40:58;;;;;;;2.58;1.17;;;8.80;77.80;;;;;;2301797;53;21015;-84
2022/12/27 09:44:15;;;;;;;3.53;1.30;;;8.90;77.00;;;;;;2558624;53;21335;-85
2022/12/27 09:47:05;;;;;;;3.05;1.30;;;9.00;77.00;;;;;;2558959;53;20963;-85
2022/12/27 09:49:38;;;;;;;2.42;1.17;;;9.10;76.70;;;;;;2318710;53;20988;-84
2022/12/27 09:52:17;;;;;;;5.00;1.40;;;9.20;76.90;;;;;;2558924;53;20976;-84
2022/12/27 09:54:56;;;;;;;5.15;1.35;;;9.30;76.80;;;;;;2559933;53;20980;-85
2022/12/27 09:57:46;;;;;;;2.42;0.90;;;9.40;76.80;;;;;;2299009;53;20973;-84
2022/12/27 10:00:20;;;;;;;3.20;1.20;;;9.50;76.60;;;;;;2317598;53;21474;-83
2022/12/27 10:02:47;;;;;;;3.97;1.30;;;9.60;76.80;;;;;;2558406;53;20983;-84
2022/12/27 10:05:21;;;;;;;2.47;1.10;;;9.70;77.00;;;;;;2317999;53;21030;-84
2022/12/27 10:14:06;;;;;;;4.15;1.08;;;9.80;76.80;;;;;;2557828;53;20983;-83
2022/12/27 10:18:25;;;;;;;2.35;0.82;;;10.00;74.70;;;;;;2557774;53;21046;-84
2022/12/27 10:21:16;;;;;;;3.40;0.80;;;10.20;74.60;;;;;;2317705;53;20983;-84
2022/12/27 10:23:43;;;;;;;2.33;0.80;;;10.30;75.40;;;;;;2317970;53;22078;-84
2022/12/27 10:26:12;;;;;;;2.20;0.90;;;10.40;75.60;;;;;;2558927;53;20967;-84
2022/12/27 10:29:23;;;;;;;2.80;1.15;;;10.40;75.40;;;;;;2319408;53;20962;-84
2022/12/27 10:31:49;;;;;;;3.60;1.05;;;10.50;74.30;;;;;;2560174;53;20956;-85
2022/12/27 10:34:16;;;;;;;5.12;1.42;;;10.60;75.30;;;;;;2559118;53;21447;-84
2022/12/27 10:36:43;;;;;;;4.07;0.98;;;10.60;75.20;;;;;;2558617;53;22441;-84
2022/12/27 10:39:34;;;;;;;4.45;0.95;;;10.70;75.20;;;;;;2557493;53;20982;-83
2022/12/27 10:42:33;;;;;;;4.47;1.25;;;10.80;74.80;;;;;;2526134;54;20917;-83
2022/12/27 10:45:38;;;;;;;3.22;1.15;;;10.80;74.70;;;;;;2285878;54;20921;-85
2022/12/27 10:50:45;;;;;;;2.97;1.00;;;10.90;74.30;;;;;;2529518;54;21046;-84
2022/12/27 10:53:37;;;;;;;4.40;2.05;;;11.00;73.70;;;;;;2292390;54;21049;-84
2022/12/27 10:56:45;;;;;;;3.42;1.80;;;11.10;74.30;;;;;;2535361;54;20979;-84
2022/12/27 10:59:25;;;;;;;3.47;1.50;;;11.10;73.40;;;;;;2536099;53;21049;-84
2022/12/27 11:02:55;;;;;;;5.60;1.30;;;11.20;74.70;;;;;;2522497;54;20925;-84
2022/12/27 11:05:24;;;;;;;2.90;1.17;;;11.30;73.80;;;;;;2294200;54;21489;-84
2022/12/27 11:07:50;;;;;;;3.75;1.33;;;11.30;75.10;;;;;;2558733;53;20927;-83
2022/12/27 11:10:18;;;;;;;4.47;1.67;;;11.40;75.30;;;;;;2558078;53;20958;-83
2022/12/27 11:13:06;;;;;;;4.05;2.05;;;11.40;75.30;;;;;;2557827;53;21073;-83
2022/12/27 11:15:36;;;;;;;3.05;1.15;;;11.50;74.50;;;;;;2557271;53;21011;-83
2022/12/27 11:18:09;;;;;;;4.40;1.40;;;11.60;75.10;;;;;;2558236;53;21816;-83
2022/12/27 11:20:40;;;;;;;;;;;11.60;74.90;;;;;;2562702;53;21002;-84
2022/12/27 11:23:26;;;;;;;2.25;0.95;;;11.70;73.80;;;;;;2317850;54;20107;-83
2022/12/27 11:25:59;;;;;;;3.05;1.10;;;11.70;74.10;;;;;;2283113;55;21825;-84
2022/12/27 11:28:38;;;;;;;3.45;1.30;;;11.80;74.50;;;;;;2526335;54;20927;-83
2022/12/27 11:31:19;;;;;;;2.85;1.25;;;11.80;74.30;;;;;;2517041;54;20973;-83
2022/12/27 11:33:53;;;;;;;4.03;1.30;;;11.80;74.00;;;;;;2526450;54;20934;-84
2022/12/27 11:36:39;;;;;;;3.62;1.17;;;11.90;74.20;;;;;;2523119;54;21917;-83
2022/12/27 11:39:06;;;;;;;3.15;1.20;;;11.90;73.50;;;;;;2539027;53;20959;-84
2022/12/27 11:42:07;;;;;;;3.62;1.40;;;11.90;74.20;;;;;;2319076;54;20951;-84
2022/12/27 11:44:35;;;;;;;4.57;1.37;;;11.90;73.00;;;;;;2559338;53;21062;-84
2022/12/27 11:48:39;;;;;;;4.45;1.70;;;12.00;74.20;;;;;;2289106;54;1816317;-82
2022/12/27 11:51:29;;;;;;;4.55;1.42;;;12.00;72.60;;;;;;2527405;54;21015;-84
2022/12/27 11:57:33;;;;;;;3.15;1.40;;;12.00;73.40;;;;;;2558273;53;21382;-85
2022/12/27 12:00:15;;;;;;;2.92;1.17;;;12.10;72.60;;;;;;2317955;54;21026;-85
2022/12/27 12:03:26;;;;;;;4.40;1.60;;;12.10;73.20;;;;;;2546996;53;21473;-85
2022/12/27 12:08:53;;;;;;;;;;;12.10;73.00;;;;;;2553623;53;20944;-84
2022/12/27 12:15:48;;;;;;;3.25;1.25;;;12.20;72.50;;;;;;2296415;54;20447;-85
2022/12/27 12:18:47;;;;;;;3.03;1.50;;;12.20;72.40;;;;;;2525711;54;20971;-84
2022/12/27 12:28:14;;;;;;;3.97;1.70;;;12.20;73.00;;;;;;2319138;54;21010;-84
2022/12/27 12:31:17;;;;;;;3.25;1.42;;;12.30;73.30;;;;;;2293175;55;20967;-83
2022/12/27 12:33:57;;;;;;;3.45;1.52;;;12.30;73.50;;;;;;2559999;53;21046;-86
2022/12/27 12:36:53;;;;;;;3.55;1.55;;;12.30;73.10;;;;;;2295917;55;20999;-83
2022/12/27 12:42:34;;;;;;;3.65;1.40;;;12.30;73.20;;;;;;2558468;53;20927;-81
2022/12/27 12:46:13;;;;;;;4.00;1.05;;;12.30;72.30;;;;;;2559191;53;20919;-84
2022/12/27 12:49:04;;;;;;;3.10;1.23;;;12.40;72.30;;;;;;2319374;54;21043;-85
2022/12/27 12:58:26;;;;;;;4.35;1.23;;;12.40;72.70;;;;;;2559398;53;20891;-84
2022/12/27 13:07:01;;;;;;;2.33;0.90;;;12.40;72.50;;;;;;2293017;55;21148;-82
2022/12/27 13:11:21;;;;;;;4.57;0.90;;;12.40;71.30;;;;;;2293243;55;21025;-84
2022/12/27 13:14:21;;;;;;;4.95;1.00;;;12.30;70.90;;;;;;2527592;54;22267;-84
2022/12/27 13:17:17;;;;;;;2.47;0.90;;;12.30;71.30;;;;;;2294598;54;20997;-84
2022/12/27 13:21:34;;;;;;;3.53;1.00;;;12.30;71.50;;;;;;2292716;55;20993;-84
2022/12/27 13:28:08;;;;;;;3.47;1.10;;;12.30;70.70;;;;;;2526627;54;21410;-84
2022/12/27 13:31:03;;;;;;;3.47;1.00;;;12.30;70.90;;;;;;2293566;54;21005;-81
2022/12/27 13:33:59;;;;;;;3.62;1.10;;;12.30;71.60;;;;;;2527014;54;21422;-84
2022/12/27 13:37:16;;;;;;;6.10;1.27;;;12.30;71.80;;;;;;2314263;54;21891;-85
2022/12/27 13:43:11;;;;;;;3.03;1.10;;;12.30;71.40;;;;;;2559516;53;20975;-85
2022/12/27 13:46:08;;;;;;;2.75;1.25;;;12.30;71.30;;;;;;2560414;53;20948;-84
2022/12/27 13:52:00;;;;;;;4.82;1.45;;;12.30;71.70;;;;;;2320774;54;20923;-86
2022/12/27 13:55:00;;;;;;;3.83;1.40;;;12.30;71.70;;;;;;2321115;54;20996;-85
2022/12/27 13:57:58;;;;;;;5.28;1.58;;;12.30;71.50;;;;;;2321703;54;20944;-85
2022/12/27 14:00:25;;;;;;;4.60;1.45;;;12.30;71.70;;;;;;2530038;54;20961;-83
2022/12/27 14:03:47;;;;;;;5.10;1.60;;;12.30;72.60;;;;;;2296999;54;20925;-84
2022/12/27 14:08:49;;;;;;;4.20;1.58;;;12.30;72.40;;;;;;2294378;54;21439;-84
2022/12/27 14:13:05;;;;;;;2.80;1.27;;;12.30;71.30;;;;;;2527503;54;20914;-84
2022/12/27 14:16:09;;;;;;;3.20;1.30;;;12.30;71.80;;;;;;2293433;54;21774;-84
2022/12/27 14:19:06;;;;;;;3.25;1.60;;;12.30;71.80;;;;;;2294638;54;20982;-84
2022/12/27 14:22:11;;;;;;;5.30;2.12;;;12.30;72.10;;;;;;2527284;54;20941;-84
2022/12/27 14:28:02;;;;;;;6.35;2.33;;;12.30;71.70;;;;;;2528895;54;21521;-83
2022/12/27 14:31:14;;;;;;;4.50;2.35;;;12.30;71.00;;;;;;2528791;54;20993;-82
2022/12/27 14:40:48;;;;;;;6.35;2.10;;;12.30;71.70;;;;;;2528404;54;21049;-83
2022/12/27 14:46:58;;;;;;;5.50;2.75;;;12.30;71.90;;;;;;2292904;54;20945;-84
2022/12/27 14:52:51;;;;;;;7.03;2.87;;;12.30;71.50;;;;;;2293384;54;20985;-83
2022/12/27 14:56:50;;;;;;;7.37;2.83;;;12.30;72.20;;;;;;2292522;54;21041;-83
2022/12/27 14:59:35;;;;;;;5.82;2.67;;;12.30;71.40;;;;;;2292714;54;20933;-83
2022/12/27 15:02:13;;;;;;;4.43;2.20;;;12.30;72.20;;;;;;2525899;54;20994;-82
2022/12/27 15:05:00;;;;;;;4.57;2.67;;;12.30;72.60;;;;;;2293288;54;20937;-83
2022/12/27 15:12:39;;;;;;;5.47;2.60;;;12.30;72.60;;;;;;2527430;54;20954;-83
2022/12/27 15:15:36;;;;;;;6.62;2.20;;;12.30;72.60;;;;;;2527588;54;21073;-85
2022/12/27 15:18:29;;;;;;;6.05;2.58;;;12.30;72.10;;;;;;2526580;54;21766;-85
2022/12/27 15:24:39;;;;;;;4.80;2.40;;;12.30;72.00;;;;;;2526883;54;21783;-84
2022/12/27 15:28:48;;;;;;;5.37;2.80;;;12.20;71.20;;;;;;2294089;54;21017;-83
2022/12/27 15:31:26;;;;;;;7.57;4.18;;;12.20;70.90;;;;;;2526330;54;20953;-85
2022/12/27 15:34:10;;;;;;;6.70;3.58;;;12.10;71.70;;;;;;2527233;54;21016;-82
2022/12/27 15:36:44;;;;;;;5.70;2.97;;;12.10;71.40;;;;;;2294400;54;20989;-84
2022/12/27 15:42:45;;;;;;;4.45;2.30;;;12.00;71.30;;;;;;2292454;55;21041;-85
2022/12/27 15:47:22;;;;;;;3.87;1.67;;;11.90;70.20;;;;;;2525805;54;21020;-84
2022/12/27 15:52:46;;;;;;;3.47;1.50;;;11.90;70.00;;;;;;2292539;55;20964;-83
2022/12/27 15:55:49;;;;;;;2.65;1.40;;;11.80;69.60;;;;;;2527010;54;20964;-85
2022/12/27 15:58:31;;;;;;;4.03;1.15;;;11.70;70.00;;;;;;2526675;54;20908;-85
2022/12/27 16:01:24;;;;;;;3.05;0.90;;;11.60;70.40;;;;;;2302367;55;20937;-85
2022/12/27 16:03:51;;;;;;;2.72;1.10;;;11.50;69.70;;;;;;2319030;55;20923;-84
2022/12/27 16:09:49;;;;;;;2.97;1.40;;;11.50;70.50;;;;;;2559455;54;20938;-85
2022/12/27 16:12:39;;;;;;;2.47;1.15;;;11.30;69.10;;;;;;2319424;55;20938;-85
2022/12/27 16:15:38;;;;;;;3.83;1.73;;;11.20;69.40;;;;;;2319900;55;20998;-82
2022/12/27 16:18:06;;;;;;;4.00;1.90;;;11.20;69.20;;;;;;2320075;55;20957;-86
2022/12/27 16:20:32;;;;;;;3.25;1.70;;;11.00;69.60;;;;;;2319933;55;20930;-86
2022/12/27 16:23:03;;;;;;;2.97;1.50;;;11.00;69.70;;;;;;2559897;54;21048;-85
2022/12/27 16:25:41;;;;;;;4.65;2.00;;;10.90;69.70;;;;;;2546655;54;21010;-86
2022/12/27 16:28:23;;;;;;;4.47;2.35;;;10.80;69.30;;;;;;2559765;54;20981;-84
2022/12/27 16:30:53;;;;;;;7.67;2.60;;;10.70;69.40;;;;;;2559847;54;20954;-85
2022/12/27 16:33:34;;;;;;;4.47;2.53;;;10.70;69.80;;;;;;2559941;54;20978;-85
2022/12/27 16:36:33;;;;;;;3.55;1.98;;;10.60;69.70;;;;;;2314295;54;20970;-86
2022/12/27 16:40:52;;;;;;;2.72;1.55;;;10.60;70.10;;;;;;2559265;53;20935;-85
2022/12/27 16:43:30;;;;;;;4.28;1.70;;;10.50;69.00;;;;;;2558461;53;21003;-85
2022/12/27 16:46:07;;;;;;;3.70;1.80;;;10.40;69.80;;;;;;2558534;53;21004;-85
2022/12/27 16:52:41;;;;;;;4.25;2.15;;;10.40;69.90;;;;;;2558835;53;20955;-84
2022/12/27 16:55:51;;;;;;;5.50;1.95;;;10.30;69.10;;;;;;2559292;53;20979;-84
2022/12/27 16:58:35;;;;;;;4.43;2.05;;;10.20;69.40;;;;;;2558682;53;20937;-85
2022/12/27 17:01:04;;;;;;;4.93;2.25;;;10.20;70.30;;;;;;2319173;54;20940;-85
2022/12/27 17:03:41;;;;;;;3.00;1.58;;;10.00;69.90;;;;;;2319805;54;21786;-85
2022/12/27 17:07:33;;;;;;;4.78;2.40;;;10.00;69.80;;;;;;2559144;53;20983;-85
2022/12/27 17:10:41;;;;;;;6.12;2.33;;;10.00;69.10;;;;;;2314037;54;21094;-85
2022/12/27 17:14:12;;;;;;;5.12;2.20;;;9.90;70.50;;;;;;2319068;54;21002;-85
2022/12/27 17:16:49;;;;;;;4.70;2.00;;;9.80;70.20;;;;;;2558364;53;20979;-86